createdAt,value
2023-07-30T00:02:23.404Z,62.82
2023-07-30T00:04:50.678Z,62.69
2023-07-30T00:07:17.728Z,60.66
2023-07-30T00:09:44.746Z,60.46
2023-07-30T00:12:11.769Z,60.72
2023-07-30T00:14:38.884Z,61.01
2023-07-30T00:17:06.026Z,61.53
2023-07-30T00:19:33.162Z,62.79
2023-07-30T00:22:00.350Z,61.90
2023-07-30T00:24:27.379Z,61.11
2023-07-30T00:26:54.488Z,60.81
2023-07-30T00:29:21.480Z,60.98
2023-07-30T00:31:48.561Z,61.51
2023-07-30T00:34:15.626Z,61.06
2023-07-30T00:36:42.799Z,62.44
2023-07-30T00:39:12.455Z,62.64
2023-07-30T00:41:40.044Z,61.16
2023-07-30T00:44:07.431Z,60.59
2023-07-30T00:46:36.132Z,61.06
2023-07-30T00:49:04.260Z,61.05
2023-07-30T00:51:32.722Z,61.94
2023-07-30T00:53:59.859Z,62.41
2023-07-30T00:56:27.728Z,62.12
2023-07-30T00:58:54.683Z,60.91
2023-07-30T01:01:22.222Z,60.59
2023-07-30T01:03:49.753Z,61.34
2023-07-30T01:06:16.970Z,61.74
2023-07-30T01:08:44.014Z,62.35
2023-07-30T01:11:11.118Z,63.49
2023-07-30T01:13:38.386Z,63.06
2023-07-30T01:16:05.954Z,61.70
2023-07-30T01:18:33.156Z,61.56
2023-07-30T01:21:00.479Z,61.98
2023-07-30T01:23:27.602Z,61.57
2023-07-30T01:26:01.075Z,62.44
2023-07-30T01:28:28.175Z,63.65
2023-07-30T01:30:56.099Z,62.95
2023-07-30T01:33:23.968Z,61.32
2023-07-30T01:35:51.129Z,60.60
2023-07-30T01:38:18.236Z,60.75
2023-07-30T01:40:45.439Z,60.82
2023-07-30T01:43:12.603Z,61.42
2023-07-30T01:45:41.158Z,62.00
2023-07-30T01:48:08.403Z,61.30
2023-07-30T01:50:35.519Z,60.12
2023-07-30T01:53:02.781Z,59.39
2023-07-30T01:55:30.078Z,59.46
2023-07-30T01:57:57.121Z,59.70
2023-07-30T02:00:24.299Z,60.45
2023-07-30T02:02:51.502Z,61.13
2023-07-30T02:05:18.569Z,61.24
2023-07-30T02:07:46.011Z,59.83
2023-07-30T02:10:12.961Z,59.80
2023-07-30T02:12:39.997Z,59.84
2023-07-30T02:15:07.682Z,60.37
2023-07-30T02:17:34.853Z,61.50
2023-07-30T02:20:02.068Z,61.73
2023-07-30T02:22:29.460Z,61.79
2023-07-30T02:24:58.388Z,60.08
2023-07-30T02:27:25.654Z,60.10
2023-07-30T02:29:52.699Z,60.02
2023-07-30T02:32:19.906Z,60.21
2023-07-30T02:34:47.005Z,61.23
2023-07-30T02:37:14.294Z,62.25
2023-07-30T02:39:42.242Z,61.83
2023-07-30T02:42:09.422Z,60.83
2023-07-30T02:44:36.517Z,60.53
2023-07-30T02:47:03.579Z,60.77
2023-07-30T02:49:30.764Z,61.57
2023-07-30T02:51:58.045Z,62.30
2023-07-30T02:54:25.130Z,63.11
2023-07-30T02:56:52.075Z,62.78
2023-07-30T02:59:19.104Z,61.19
2023-07-30T03:01:46.205Z,60.91
2023-07-30T03:04:13.406Z,61.07
2023-07-30T03:06:40.772Z,61.59
2023-07-30T03:09:08.646Z,62.36
2023-07-30T03:11:35.916Z,63.29
2023-07-30T03:14:03.287Z,62.91
2023-07-30T03:16:30.906Z,61.31
2023-07-30T03:18:58.325Z,60.70
2023-07-30T03:21:25.474Z,61.01
2023-07-30T03:23:52.630Z,60.67
2023-07-30T03:26:20.252Z,61.79
2023-07-30T03:28:47.451Z,63.07
2023-07-30T03:31:14.612Z,62.56
2023-07-30T03:33:47.156Z,61.10
2023-07-30T03:36:17.195Z,60.06
2023-07-30T03:38:44.334Z,60.46
2023-07-30T03:41:12.183Z,60.95
2023-07-30T03:43:39.251Z,61.90
2023-07-30T03:46:06.377Z,62.80
2023-07-30T03:48:33.564Z,61.76
2023-07-30T03:51:00.824Z,60.13
2023-07-30T03:53:27.891Z,60.23
2023-07-30T03:55:55.303Z,60.06
2023-07-30T03:58:22.352Z,61.03
2023-07-30T04:00:49.443Z,61.22
2023-07-30T04:03:16.592Z,62.24
2023-07-30T04:05:43.708Z,61.42
2023-07-30T04:08:10.941Z,60.00
2023-07-30T04:10:38.442Z,60.02
2023-07-30T04:13:05.674Z,60.06
2023-07-30T04:15:33.022Z,60.77
2023-07-30T04:18:00.116Z,60.72
2023-07-30T04:20:27.304Z,61.11
2023-07-30T04:22:55.729Z,61.02
2023-07-30T04:25:22.771Z,59.64
2023-07-30T04:27:49.855Z,59.06
2023-07-30T04:30:17.081Z,59.41
2023-07-30T04:32:44.138Z,59.91
2023-07-30T04:35:11.351Z,60.17
2023-07-30T04:37:40.048Z,61.11
2023-07-30T04:40:08.088Z,61.16
2023-07-30T04:42:35.649Z,59.75
2023-07-30T04:45:04.358Z,59.80
2023-07-30T04:47:34.224Z,60.02
2023-07-30T04:50:01.415Z,60.63
2023-07-30T04:52:28.467Z,61.18
2023-07-30T04:54:55.800Z,61.28
2023-07-30T04:57:22.950Z,61.27
2023-07-30T04:59:50.108Z,59.46
2023-07-30T05:02:17.219Z,59.31
2023-07-30T05:04:44.326Z,59.02
2023-07-30T05:07:11.381Z,59.53
2023-07-30T05:09:38.405Z,60.05
2023-07-30T05:12:05.800Z,60.60
2023-07-30T05:14:32.910Z,60.05
2023-07-30T05:16:59.962Z,58.48
2023-07-30T05:19:27.031Z,58.76
2023-07-30T05:21:54.127Z,59.14
2023-07-30T05:24:21.382Z,60.21
2023-07-30T05:26:48.497Z,60.95
2023-07-30T05:29:15.581Z,61.71
2023-07-30T05:31:42.696Z,61.28
2023-07-30T05:34:09.727Z,59.81
2023-07-30T05:36:36.751Z,59.36
2023-07-30T05:39:04.111Z,59.21
2023-07-30T05:41:31.551Z,59.40
2023-07-30T05:43:58.604Z,59.38
2023-07-30T05:46:25.674Z,59.42
2023-07-30T05:48:52.754Z,61.56
2023-07-30T05:51:19.682Z,61.02
2023-07-30T05:53:46.772Z,59.44
2023-07-30T05:56:15.379Z,58.95
2023-07-30T05:58:42.427Z,59.37
2023-07-30T06:01:09.601Z,59.88
2023-07-30T06:03:36.754Z,61.13
2023-07-30T06:06:03.970Z,61.81
2023-07-30T06:08:31.444Z,61.14
2023-07-30T06:11:02.964Z,59.14
2023-07-30T06:13:30.430Z,58.23
2023-07-30T06:15:57.718Z,58.35
2023-07-30T06:18:24.946Z,58.65
2023-07-30T06:20:51.973Z,59.25
2023-07-30T06:23:19.054Z,61.35
2023-07-30T06:25:46.143Z,58.32
2023-07-30T06:28:13.214Z,56.00
2023-07-30T06:30:40.875Z,55.32
2023-07-30T06:33:07.976Z,57.07
2023-07-30T06:35:35.371Z,56.54
2023-07-30T06:38:02.382Z,56.04
2023-07-30T06:40:29.790Z,55.07
2023-07-30T06:42:56.836Z,57.76
2023-07-30T06:45:23.875Z,58.15
2023-07-30T06:47:51.462Z,58.16
2023-07-30T06:50:18.626Z,56.31
2023-07-30T06:52:45.666Z,55.31
2023-07-30T06:55:12.720Z,54.93
2023-07-30T06:57:40.242Z,55.51
2023-07-30T07:00:07.960Z,56.26
2023-07-30T07:02:35.419Z,55.97
2023-07-30T07:05:02.456Z,57.13
2023-07-30T07:07:30.149Z,55.70
2023-07-30T07:09:57.138Z,54.60
2023-07-30T07:12:24.217Z,53.26
2023-07-30T07:14:51.301Z,52.91
2023-07-30T07:17:18.307Z,53.71
2023-07-30T07:19:45.609Z,53.72
2023-07-30T07:22:12.595Z,54.44
2023-07-30T07:24:39.754Z,55.64
2023-07-30T07:27:07.008Z,55.96
2023-07-30T07:29:34.136Z,55.73
2023-07-30T07:32:01.362Z,56.93
2023-07-30T07:34:28.863Z,54.89
2023-07-30T07:36:56.132Z,54.25
2023-07-30T07:39:23.134Z,52.33
2023-07-30T07:41:50.152Z,49.68
2023-07-30T07:44:17.245Z,53.68
2023-07-30T07:46:44.213Z,53.00
2023-07-30T07:49:11.403Z,50.41
2023-07-30T07:51:38.636Z,50.63
2023-07-30T07:54:05.836Z,50.12
2023-07-30T07:56:32.984Z,49.17
2023-07-30T07:59:00.415Z,49.73
2023-07-30T08:01:27.632Z,49.87
2023-07-30T08:03:54.792Z,50.65
2023-07-30T08:06:21.976Z,50.06
2023-07-30T08:08:49.036Z,51.52
2023-07-30T08:11:16.004Z,51.88
2023-07-30T08:13:43.081Z,52.18
2023-07-30T08:16:10.109Z,51.93
2023-07-30T08:18:37.129Z,51.02
2023-07-30T08:21:04.162Z,50.08
2023-07-30T08:23:31.208Z,50.92
2023-07-30T08:25:58.351Z,50.15
2023-07-30T08:28:25.597Z,51.92
2023-07-30T08:30:52.655Z,48.24
2023-07-30T08:33:19.874Z,48.45
2023-07-30T08:35:46.973Z,47.68
2023-07-30T08:38:14.108Z,47.53
2023-07-30T08:40:41.238Z,47.84
2023-07-30T08:43:08.326Z,46.93
2023-07-30T08:45:35.448Z,47.85
2023-07-30T08:48:02.540Z,46.89
2023-07-30T08:50:29.935Z,46.24
2023-07-30T08:52:57.096Z,45.17
2023-07-30T08:55:24.563Z,45.85
2023-07-30T08:57:52.034Z,46.11
2023-07-30T09:00:19.046Z,46.55
2023-07-30T09:02:49.913Z,46.56
2023-07-30T09:05:17.089Z,45.97
2023-07-30T09:07:44.204Z,45.78
2023-07-30T09:10:11.265Z,45.22
2023-07-30T09:12:38.516Z,44.31
2023-07-30T09:15:07.003Z,44.08
2023-07-30T09:17:34.793Z,43.83
2023-07-30T09:20:05.334Z,44.20
2023-07-30T09:22:42.923Z,44.93
2023-07-30T09:25:10.760Z,44.17
2023-07-30T09:27:37.885Z,44.09
2023-07-30T09:30:07.093Z,43.93
2023-07-30T09:32:35.531Z,43.29
2023-07-30T09:35:07.865Z,42.68
2023-07-30T09:37:39.382Z,42.19
2023-07-30T09:40:14.046Z,43.06
2023-07-30T09:42:45.567Z,43.03
2023-07-30T09:45:25.866Z,43.92
2023-07-30T09:47:53.445Z,42.62
2023-07-30T09:50:20.622Z,43.78
2023-07-30T09:52:47.691Z,43.89
2023-07-30T09:55:14.876Z,45.07
2023-07-30T09:57:41.965Z,42.67
2023-07-30T10:00:12.343Z,42.07
2023-07-30T10:02:41.990Z,41.74
2023-07-30T10:05:12.130Z,43.28
2023-07-30T10:07:41.819Z,44.43
2023-07-30T10:10:09.275Z,43.79
2023-07-30T10:12:36.373Z,43.15
2023-07-30T10:15:03.655Z,44.23
2023-07-30T10:17:31.153Z,44.41
2023-07-30T10:19:58.217Z,44.36
2023-07-30T10:22:26.392Z,45.08
2023-07-30T10:24:57.907Z,44.93
2023-07-30T10:27:26.257Z,44.93
2023-07-30T10:30:15.695Z,44.52
2023-07-30T10:33:00.403Z,46.33
2023-07-30T10:35:48.591Z,45.87
2023-07-30T10:38:20.277Z,45.64
2023-07-30T10:41:12.698Z,45.08
2023-07-30T10:43:43.174Z,45.46
2023-07-30T10:46:11.435Z,44.90
2023-07-30T10:48:42.568Z,44.56
2023-07-30T10:51:12.108Z,44.47
2023-07-30T10:53:40.542Z,45.51
2023-07-30T10:56:08.084Z,43.91
2023-07-30T10:58:35.945Z,43.96
2023-07-30T11:01:07.100Z,43.85
2023-07-30T11:03:34.426Z,44.88
2023-07-30T11:06:02.137Z,44.28
2023-07-30T11:08:39.816Z,45.75
2023-07-30T11:11:08.047Z,44.20
2023-07-30T11:13:44.129Z,43.54
2023-07-30T11:16:11.573Z,44.08
2023-07-30T11:18:39.256Z,44.80
2023-07-30T11:21:10.598Z,43.45
2023-07-30T11:23:38.494Z,43.59
2023-07-30T11:26:07.741Z,43.61
2023-07-30T11:28:38.917Z,43.46
2023-07-30T11:31:27.910Z,44.96
2023-07-30T11:33:55.044Z,44.73
2023-07-30T11:36:23.572Z,44.84
2023-07-30T11:38:50.734Z,44.50
2023-07-30T11:41:17.826Z,44.55
2023-07-30T11:43:45.071Z,44.05
2023-07-30T11:46:14.214Z,44.53
2023-07-30T11:48:42.312Z,44.50
2023-07-30T11:51:29.100Z,45.53
2023-07-30T11:54:01.507Z,45.95
2023-07-30T11:56:32.318Z,45.75
2023-07-30T11:59:04.786Z,45.97
2023-07-30T12:01:35.815Z,44.58
2023-07-30T12:04:04.652Z,44.27
2023-07-30T12:06:48.194Z,44.93
2023-07-30T12:09:20.628Z,44.34
2023-07-30T12:11:51.703Z,44.14
2023-07-30T12:14:19.634Z,44.17
2023-07-30T12:16:46.964Z,44.39
2023-07-30T12:19:14.111Z,44.66
2023-07-30T12:21:41.288Z,44.29
2023-07-30T12:24:08.464Z,44.87
2023-07-30T12:26:35.614Z,45.35
2023-07-30T12:29:02.893Z,45.78
2023-07-30T12:31:30.171Z,46.17
2023-07-30T12:33:57.342Z,46.03
2023-07-30T12:36:24.514Z,46.13
2023-07-30T12:38:54.554Z,45.59
2023-07-30T12:41:26.941Z,46.37
2023-07-30T12:43:54.899Z,45.75
2023-07-30T12:46:22.614Z,45.26
2023-07-30T12:48:49.889Z,45.09
2023-07-30T12:51:16.948Z,45.20
2023-07-30T12:53:43.984Z,45.58
2023-07-30T12:56:11.216Z,44.82
2023-07-30T12:58:38.611Z,44.49
2023-07-30T13:01:05.910Z,46.12
2023-07-30T13:03:33.220Z,45.93
2023-07-30T13:06:00.549Z,46.45
2023-07-30T13:08:27.788Z,46.37
2023-07-30T13:10:54.957Z,46.04
2023-07-30T13:13:22.023Z,46.00
2023-07-30T13:15:49.229Z,45.64
2023-07-30T13:18:16.344Z,45.91
2023-07-30T13:20:43.452Z,46.19
2023-07-30T13:23:10.570Z,46.62
2023-07-30T13:25:37.769Z,47.00
2023-07-30T13:28:04.935Z,46.26
2023-07-30T13:30:32.050Z,46.24
2023-07-30T13:32:59.110Z,46.80
2023-07-30T13:35:26.335Z,46.19
2023-07-30T13:37:53.310Z,46.16
2023-07-30T13:40:20.555Z,45.68
2023-07-30T13:42:47.605Z,45.31
2023-07-30T13:45:14.865Z,44.76
2023-07-30T13:47:43.067Z,44.77
2023-07-30T13:50:10.767Z,44.36
2023-07-30T13:52:37.851Z,45.11
2023-07-30T13:55:05.382Z,45.01
2023-07-30T13:57:34.475Z,44.79
2023-07-30T14:00:03.041Z,44.83
2023-07-30T14:02:32.362Z,45.75
2023-07-30T14:04:59.629Z,45.69
2023-07-30T14:07:26.992Z,45.47
2023-07-30T14:09:54.111Z,46.57
2023-07-30T14:12:21.150Z,46.18
2023-07-30T14:14:48.269Z,46.47
2023-07-30T14:17:17.032Z,46.76
2023-07-30T14:19:44.356Z,47.71
2023-07-30T14:22:11.313Z,47.69
2023-07-30T14:24:38.928Z,47.97
2023-07-30T14:27:06.395Z,47.81
2023-07-30T14:29:34.128Z,48.16
2023-07-30T14:32:01.145Z,48.43
2023-07-30T14:34:28.175Z,48.77
2023-07-30T14:36:55.633Z,49.18
2023-07-30T14:39:22.610Z,49.43
2023-07-30T14:41:49.789Z,49.55
2023-07-30T14:44:16.899Z,49.88
2023-07-30T14:46:44.011Z,50.08
2023-07-30T14:49:11.361Z,49.89
2023-07-30T14:51:38.674Z,50.43
2023-07-30T14:54:05.887Z,51.02
2023-07-30T14:56:32.957Z,51.35
2023-07-30T14:59:00.056Z,51.67
2023-07-30T15:01:29.692Z,51.50
2023-07-30T15:03:56.863Z,52.02
2023-07-30T15:06:25.442Z,51.78
2023-07-30T15:08:52.520Z,52.28
2023-07-30T15:11:19.816Z,52.43
2023-07-30T15:13:46.879Z,52.42
2023-07-30T15:16:13.975Z,52.84
2023-07-30T15:18:43.017Z,52.46
2023-07-30T15:21:13.660Z,52.46
2023-07-30T15:23:43.045Z,51.88
2023-07-30T15:26:10.277Z,51.74
2023-07-30T15:28:37.305Z,51.79
2023-07-30T15:31:04.549Z,51.88
2023-07-30T15:33:33.765Z,51.63
2023-07-30T15:36:03.193Z,51.67
2023-07-30T15:38:30.566Z,51.56
2023-07-30T15:40:58.373Z,51.55
2023-07-30T15:43:25.885Z,52.14
2023-07-30T15:45:54.345Z,51.80
2023-07-30T15:48:22.435Z,51.40
2023-07-30T15:50:49.837Z,51.44
2023-07-30T15:53:16.912Z,51.23
2023-07-30T15:55:45.218Z,50.56
2023-07-30T15:58:12.447Z,50.59
2023-07-30T16:00:39.624Z,50.84
2023-07-30T16:03:08.614Z,50.97
2023-07-30T16:05:39.519Z,50.74
2023-07-30T16:08:06.613Z,50.55
2023-07-30T16:10:33.730Z,50.61
2023-07-30T16:13:00.790Z,50.85
2023-07-30T16:15:28.869Z,51.25
2023-07-30T16:17:56.117Z,51.69
2023-07-30T16:20:23.604Z,51.66
2023-07-30T16:22:50.892Z,51.94
2023-07-30T16:25:18.095Z,52.00
2023-07-30T16:27:45.179Z,52.54
2023-07-30T16:30:12.472Z,52.43
2023-07-30T16:32:40.028Z,52.68
2023-07-30T16:35:07.270Z,52.85
2023-07-30T16:37:34.865Z,52.87
2023-07-30T16:40:01.920Z,53.09
2023-07-30T16:42:29.158Z,53.20
2023-07-30T16:44:56.298Z,53.47
2023-07-30T16:47:23.345Z,53.61
2023-07-30T16:49:50.716Z,53.70
2023-07-30T16:52:17.987Z,54.60
2023-07-30T16:54:45.615Z,54.08
2023-07-30T16:57:12.662Z,52.61
2023-07-30T16:59:41.853Z,51.65
2023-07-30T17:02:08.844Z,51.71
2023-07-30T17:04:36.081Z,52.19
2023-07-30T17:07:03.427Z,53.11
2023-07-30T17:09:30.557Z,53.48
2023-07-30T17:11:57.546Z,54.08
2023-07-30T17:14:24.695Z,54.81
2023-07-30T17:16:51.778Z,55.42
2023-07-30T17:19:18.943Z,55.85
2023-07-30T17:21:46.700Z,56.42
2023-07-30T17:24:13.733Z,56.14
2023-07-30T17:26:41.153Z,54.69
2023-07-30T17:29:08.649Z,54.14
2023-07-30T17:31:35.760Z,54.20
2023-07-30T17:34:02.936Z,54.24
2023-07-30T17:36:31.775Z,54.89
2023-07-30T17:38:59.521Z,55.48
2023-07-30T17:41:27.781Z,56.12
2023-07-30T17:43:54.908Z,56.56
2023-07-30T17:46:22.487Z,57.01
2023-07-30T17:48:50.286Z,56.45
2023-07-30T17:51:18.555Z,54.86
2023-07-30T17:53:45.899Z,54.63
2023-07-30T17:56:13.056Z,54.72
2023-07-30T17:58:40.241Z,55.42
2023-07-30T18:01:07.403Z,56.09
2023-07-30T18:03:35.689Z,56.81
2023-07-30T18:06:03.309Z,57.54
2023-07-30T18:08:30.966Z,58.58
2023-07-30T18:10:58.139Z,58.22
2023-07-30T18:13:25.338Z,56.15
2023-07-30T18:15:52.426Z,55.69
2023-07-30T18:18:21.379Z,56.08
2023-07-30T18:20:48.609Z,56.65
2023-07-30T18:23:15.722Z,56.45
2023-07-30T18:25:42.814Z,57.73
2023-07-30T18:28:10.026Z,58.49
2023-07-30T18:30:38.087Z,59.05
2023-07-30T18:33:08.335Z,58.57
2023-07-30T18:35:37.742Z,56.69
2023-07-30T18:38:05.409Z,56.49
2023-07-30T18:40:36.175Z,56.40
2023-07-30T18:43:03.340Z,56.22
2023-07-30T18:45:36.556Z,57.20
2023-07-30T18:48:04.059Z,57.66
2023-07-30T18:50:32.276Z,58.40
2023-07-30T18:53:01.299Z,58.96
2023-07-30T18:55:28.408Z,59.32
2023-07-30T18:57:55.482Z,58.49
2023-07-30T19:00:22.492Z,56.97
2023-07-30T19:02:49.781Z,56.49
2023-07-30T19:05:17.036Z,56.95
2023-07-30T19:07:44.041Z,57.38
2023-07-30T19:10:11.475Z,57.73
2023-07-30T19:12:38.681Z,58.29
2023-07-30T19:15:06.383Z,59.50
2023-07-30T19:17:33.628Z,59.54
2023-07-30T19:20:00.935Z,58.26
2023-07-30T19:22:28.155Z,58.09
2023-07-30T19:24:55.355Z,58.09
2023-07-30T19:27:22.537Z,58.40
2023-07-30T19:29:49.762Z,58.06
2023-07-30T19:32:16.901Z,59.81
2023-07-30T19:34:43.954Z,60.21
2023-07-30T19:37:11.145Z,60.16
2023-07-30T19:39:38.218Z,58.26
2023-07-30T19:42:05.603Z,57.58
2023-07-30T19:44:32.828Z,57.59
2023-07-30T19:46:59.951Z,58.52
2023-07-30T19:49:27.512Z,58.64
2023-07-30T19:51:55.097Z,60.04
2023-07-30T19:54:22.127Z,59.24
2023-07-30T19:56:49.266Z,58.44
2023-07-30T19:59:16.412Z,58.05
2023-07-30T20:01:43.463Z,57.94
2023-07-30T20:04:10.602Z,58.80
2023-07-30T20:06:38.036Z,59.01
2023-07-30T20:09:05.263Z,59.69
2023-07-30T20:11:32.875Z,60.81
2023-07-30T20:14:00.236Z,60.19
2023-07-30T20:16:27.302Z,58.58
2023-07-30T20:18:54.424Z,58.33
2023-07-30T20:21:24.057Z,58.57
2023-07-30T20:23:52.503Z,59.20
2023-07-30T20:26:19.793Z,59.68
2023-07-30T20:28:56.826Z,60.51
2023-07-30T20:31:23.972Z,59.96
2023-07-30T20:33:51.203Z,58.83
2023-07-30T20:36:18.350Z,58.38
2023-07-30T20:38:45.352Z,58.67
2023-07-30T20:41:12.475Z,59.20
2023-07-30T20:43:43.362Z,59.64
2023-07-30T20:46:14.568Z,60.53
2023-07-30T20:48:42.689Z,60.08
2023-07-30T20:51:10.524Z,58.62
2023-07-30T20:53:37.674Z,58.41
2023-07-30T20:56:05.041Z,58.73
2023-07-30T20:58:32.358Z,59.15
2023-07-30T21:00:59.461Z,59.25
2023-07-30T21:03:26.628Z,60.67
2023-07-30T21:08:32.138Z,59.50
2023-07-30T21:10:58.673Z,57.78
2023-07-30T21:13:25.117Z,58.57
2023-07-30T21:15:51.634Z,58.99
2023-07-30T21:18:18.158Z,59.86
2023-07-30T21:20:44.611Z,60.09
2023-07-30T21:23:10.975Z,60.16
2023-07-30T21:25:37.577Z,59.06
2023-07-30T21:28:04.475Z,58.22
2023-07-30T21:30:30.982Z,58.32
2023-07-30T21:32:58.794Z,58.77
2023-07-30T21:35:25.348Z,59.95
2023-07-30T21:37:51.727Z,60.66
2023-07-30T21:40:18.089Z,60.57
2023-07-30T21:42:45.120Z,59.25
2023-07-30T21:45:11.505Z,58.83
2023-07-30T21:47:37.869Z,59.19
2023-07-30T21:50:05.632Z,59.50
2023-07-30T21:52:32.148Z,60.19
2023-07-30T21:54:58.476Z,60.92
2023-07-30T21:57:25.144Z,60.72
2023-07-30T21:59:52.275Z,59.32
2023-07-30T22:02:18.867Z,58.61
2023-07-30T22:04:45.274Z,59.14
2023-07-30T22:07:13.205Z,59.11
2023-07-30T22:09:40.532Z,59.80
2023-07-30T22:12:07.572Z,61.09
2023-07-30T22:14:34.137Z,60.93
2023-07-30T22:17:00.609Z,59.01
2023-07-30T22:19:26.893Z,59.04
2023-07-30T22:21:53.228Z,59.28
2023-07-30T22:24:19.569Z,59.83
2023-07-30T22:26:45.902Z,60.73
2023-07-30T22:29:12.304Z,61.81
2023-07-30T22:31:41.663Z,61.35
2023-07-30T22:34:08.058Z,59.91
2023-07-30T22:36:34.459Z,59.28
2023-07-30T22:39:00.862Z,59.35
2023-07-30T22:41:28.208Z,60.03
2023-07-30T22:43:56.784Z,60.88
2023-07-30T22:46:23.355Z,61.81
2023-07-30T22:48:49.823Z,61.28
2023-07-30T22:51:16.208Z,59.82
2023-07-30T22:53:42.584Z,59.86
2023-07-30T22:56:09.059Z,60.53
2023-07-30T22:58:36.158Z,61.07
2023-07-30T23:01:02.662Z,61.52
2023-07-30T23:03:29.398Z,62.59
2023-07-30T23:05:55.784Z,62.11
2023-07-30T23:08:22.190Z,60.74
2023-07-30T23:10:49.766Z,60.02
2023-07-30T23:13:16.102Z,60.45
2023-07-30T23:15:42.717Z,61.13
2023-07-30T23:18:09.138Z,61.60
2023-07-30T23:20:35.631Z,62.52
2023-07-30T23:23:02.346Z,62.19
2023-07-30T23:25:28.976Z,60.73
2023-07-30T23:27:55.474Z,60.34
2023-07-30T23:30:21.949Z,60.37
2023-07-30T23:32:48.340Z,60.72
2023-07-30T23:35:14.920Z,61.46
2023-07-30T23:37:41.254Z,62.15
2023-07-30T23:40:08.094Z,61.87
2023-07-30T23:42:34.467Z,60.62
2023-07-30T23:45:00.932Z,60.38
2023-07-30T23:47:27.326Z,60.64
2023-07-30T23:49:53.817Z,61.03
2023-07-30T23:52:20.242Z,61.40
2023-07-30T23:54:46.592Z,62.08
2023-07-30T23:57:12.894Z,61.95
2023-07-30T23:59:39.248Z,60.63
